sensor_id;sensor_type;location;lat;lon;timestamp;pressure;altitude;pressure_sealevel;temperature;humidity
73455;BME280;61690;51.824;6.306;2023-02-26T00:01:26;101681.50;;;17.14;42.11
73455;BME280;61690;51.824;6.306;2023-02-26T00:03:54;101679.88;;;17.11;41.74
73455;BME280;61690;51.824;6.306;2023-02-26T00:06:20;101684.03;;;17.15;41.65
73455;BME280;61690;51.824;6.306;2023-02-26T00:08:46;101691.28;;;17.10;41.83
73455;BME280;61690;51.824;6.306;2023-02-26T00:11:11;101697.31;;;17.12;41.81
73455;BME280;61690;51.824;6.306;2023-02-26T00:13:38;101695.75;;;17.08;41.57
73455;BME280;61690;51.824;6.306;2023-02-26T00:16:12;101701.91;;;17.09;41.85
73455;BME280;61690;51.824;6.306;2023-02-26T00:18:42;101710.69;;;17.08;41.92
73455;BME280;61690;51.824;6.306;2023-02-26T00:21:15;101716.78;;;17.08;41.70
73455;BME280;61690;51.824;6.306;2023-02-26T00:23:41;101734.56;;;17.03;41.89
73455;BME280;61690;51.824;6.306;2023-02-26T00:26:06;101739.72;;;17.04;41.81
73455;BME280;61690;51.824;6.306;2023-02-26T00:28:31;101737.56;;;16.95;42.05
73455;BME280;61690;51.824;6.306;2023-02-26T00:30:57;101738.22;;;16.99;41.88
73455;BME280;61690;51.824;6.306;2023-02-26T00:33:23;101752.44;;;16.95;41.81
73455;BME280;61690;51.824;6.306;2023-02-26T00:35:52;101754.88;;;16.99;41.71
73455;BME280;61690;51.824;6.306;2023-02-26T00:38:20;101755.84;;;16.97;42.09
73455;BME280;61690;51.824;6.306;2023-02-26T00:40:48;101761.25;;;16.94;41.85
73455;BME280;61690;51.824;6.306;2023-02-26T00:45:47;101757.06;;;16.90;41.96
73455;BME280;61690;51.824;6.306;2023-02-26T00:48:29;101753.66;;;16.88;42.06
73455;BME280;61690;51.824;6.306;2023-02-26T00:51:22;101756.13;;;16.91;41.80
73455;BME280;61690;51.824;6.306;2023-02-26T00:54:15;101762.56;;;16.83;41.78
73455;BME280;61690;51.824;6.306;2023-02-26T00:56:42;101759.81;;;16.87;42.12
73455;BME280;61690;51.824;6.306;2023-02-26T00:59:07;101765.06;;;16.87;42.14
73455;BME280;61690;51.824;6.306;2023-02-26T01:01:32;101759.09;;;16.83;41.73
73455;BME280;61690;51.824;6.306;2023-02-26T01:03:58;101763.59;;;16.79;42.05
73455;BME280;61690;51.824;6.306;2023-02-26T01:06:26;101764.22;;;16.86;42.00
73455;BME280;61690;51.824;6.306;2023-02-26T01:09:12;101746.28;;;16.75;42.20
73455;BME280;61690;51.824;6.306;2023-02-26T01:11:39;101755.88;;;16.76;41.98
73455;BME280;61690;51.824;6.306;2023-02-26T01:14:05;101756.50;;;16.81;41.88
73455;BME280;61690;51.824;6.306;2023-02-26T01:16:37;101756.66;;;16.78;42.06
73455;BME280;61690;51.824;6.306;2023-02-26T01:19:19;101751.41;;;16.78;41.70
73455;BME280;61690;51.824;6.306;2023-02-26T01:21:52;101753.50;;;16.70;42.19
73455;BME280;61690;51.824;6.306;2023-02-26T01:24:22;101755.88;;;16.76;42.04
73455;BME280;61690;51.824;6.306;2023-02-26T01:26:48;101758.50;;;16.76;41.73
73455;BME280;61690;51.824;6.306;2023-02-26T01:29:15;101761.38;;;16.70;42.11
73455;BME280;61690;51.824;6.306;2023-02-26T01:31:55;101761.47;;;16.69;41.89
73455;BME280;61690;51.824;6.306;2023-02-26T01:34:43;101770.97;;;16.71;42.01
73455;BME280;61690;51.824;6.306;2023-02-26T01:42:53;101772.16;;;16.64;41.97
73455;BME280;61690;51.824;6.306;2023-02-26T01:45:34;101773.81;;;16.66;41.83
73455;BME280;61690;51.824;6.306;2023-02-26T01:48:11;101766.97;;;16.62;41.78
73455;BME280;61690;51.824;6.306;2023-02-26T01:50:40;101768.91;;;16.59;41.93
73455;BME280;61690;51.824;6.306;2023-02-26T01:53:17;101773.09;;;16.63;41.92
73455;BME280;61690;51.824;6.306;2023-02-26T01:55:46;101781.94;;;16.60;41.80
73455;BME280;61690;51.824;6.306;2023-02-26T01:58:13;101784.88;;;16.53;42.21
73455;BME280;61690;51.824;6.306;2023-02-26T02:00:39;101788.97;;;16.60;42.16
73455;BME280;61690;51.824;6.306;2023-02-26T02:03:04;101782.94;;;16.58;42.12
73455;BME280;61690;51.824;6.306;2023-02-26T02:05:54;101794.50;;;16.54;41.90
73455;BME280;61690;51.824;6.306;2023-02-26T02:08:20;101793.03;;;16.46;42.32
73455;BME280;61690;51.824;6.306;2023-02-26T02:10:47;101795.50;;;16.51;41.98
73455;BME280;61690;51.824;6.306;2023-02-26T02:16:26;101798.28;;;16.46;41.81
73455;BME280;61690;51.824;6.306;2023-02-26T02:21:38;101818.44;;;16.46;42.02
73455;BME280;61690;51.824;6.306;2023-02-26T02:27:17;101821.03;;;16.48;42.15
73455;BME280;61690;51.824;6.306;2023-02-26T02:32:50;101835.31;;;16.40;41.93
73455;BME280;61690;51.824;6.306;2023-02-26T02:35:21;101840.44;;;16.43;42.14
73455;BME280;61690;51.824;6.306;2023-02-26T02:38:00;101840.75;;;16.36;42.19
73455;BME280;61690;51.824;6.306;2023-02-26T02:40:31;101832.63;;;16.42;41.99
73455;BME280;61690;51.824;6.306;2023-02-26T02:43:08;101842.47;;;16.37;42.26
73455;BME280;61690;51.824;6.306;2023-02-26T02:45:56;101840.75;;;16.36;42.07
73455;BME280;61690;51.824;6.306;2023-02-26T02:48:41;101853.69;;;16.40;42.28
73455;BME280;61690;51.824;6.306;2023-02-26T02:51:11;101856.44;;;16.37;41.99
73455;BME280;61690;51.824;6.306;2023-02-26T02:53:49;101850.38;;;16.35;41.87
73455;BME280;61690;51.824;6.306;2023-02-26T02:56:19;101853.94;;;16.34;41.99
73455;BME280;61690;51.824;6.306;2023-02-26T02:58:56;101858.53;;;16.29;42.38
73455;BME280;61690;51.824;6.306;2023-02-26T03:01:24;101854.13;;;16.30;42.13
73455;BME280;61690;51.824;6.306;2023-02-26T03:06:26;101861.19;;;16.27;42.42
73455;BME280;61690;51.824;6.306;2023-02-26T03:08:52;101858.53;;;16.29;42.15
73455;BME280;61690;51.824;6.306;2023-02-26T03:11:17;101854.00;;;16.33;41.95
73455;BME280;61690;51.824;6.306;2023-02-26T03:13:43;101864.75;;;16.26;42.33
73455;BME280;61690;51.824;6.306;2023-02-26T03:16:36;101862.00;;;16.30;42.08
73455;BME280;61690;51.824;6.306;2023-02-26T03:21:48;101862.19;;;16.25;42.10
73455;BME280;61690;51.824;6.306;2023-02-26T03:24:36;101864.09;;;16.21;42.31
73455;BME280;61690;51.824;6.306;2023-02-26T03:27:22;101873.84;;;16.18;42.08
73455;BME280;61690;51.824;6.306;2023-02-26T03:29:57;101876.72;;;16.12;42.27
73455;BME280;61690;51.824;6.306;2023-02-26T03:32:44;101885.38;;;16.14;42.39
73455;BME280;61690;51.824;6.306;2023-02-26T03:35:17;101893.06;;;16.18;42.26
73455;BME280;61690;51.824;6.306;2023-02-26T03:37:49;101898.41;;;16.17;41.99
73455;BME280;61690;51.824;6.306;2023-02-26T03:40:34;101892.22;;;16.18;42.25
73455;BME280;61690;51.824;6.306;2023-02-26T03:43:06;101904.00;;;16.07;42.45
73455;BME280;61690;51.824;6.306;2023-02-26T03:45:34;101909.19;;;16.09;42.11
73455;BME280;61690;51.824;6.306;2023-02-26T03:48:00;101910.03;;;16.10;42.36
73455;BME280;61690;51.824;6.306;2023-02-26T03:52:52;101921.38;;;16.10;42.29
73455;BME280;61690;51.824;6.306;2023-02-26T03:55:23;101915.16;;;16.13;42.18
73455;BME280;61690;51.824;6.306;2023-02-26T03:57:49;101924.94;;;16.09;42.27
73455;BME280;61690;51.824;6.306;2023-02-26T04:00:15;101933.78;;;16.06;42.19
73455;BME280;61690;51.824;6.306;2023-02-26T04:05:31;101931.94;;;16.08;42.19
73455;BME280;61690;51.824;6.306;2023-02-26T04:07:59;101929.31;;;16.08;42.26
73455;BME280;61690;51.824;6.306;2023-02-26T04:10:31;101940.00;;;16.04;42.16
73455;BME280;61690;51.824;6.306;2023-02-26T04:12:59;101938.47;;;15.98;42.34
73455;BME280;61690;51.824;6.306;2023-02-26T04:15:25;101947.94;;;16.02;42.14
73455;BME280;61690;51.824;6.306;2023-02-26T04:17:50;101942.69;;;16.02;42.37
73455;BME280;61690;51.824;6.306;2023-02-26T04:20:15;101949.72;;;16.02;42.33
73455;BME280;61690;51.824;6.306;2023-02-26T04:22:41;101956.03;;;15.96;42.40
73455;BME280;61690;51.824;6.306;2023-02-26T04:25:06;101949.94;;;15.96;42.20
73455;BME280;61690;51.824;6.306;2023-02-26T04:27:32;101958.75;;;15.93;42.56
73455;BME280;61690;51.824;6.306;2023-02-26T04:29:57;101955.25;;;15.94;42.35
73455;BME280;61690;51.824;6.306;2023-02-26T04:32:22;101951.03;;;15.90;42.57
73455;BME280;61690;51.824;6.306;2023-02-26T04:34:47;101965.69;;;15.96;42.18
73455;BME280;61690;51.824;6.306;2023-02-26T04:37:13;101968.47;;;15.91;42.47
73455;BME280;61690;51.824;6.306;2023-02-26T04:39:38;101971.97;;;15.92;42.33
73455;BME280;61690;51.824;6.306;2023-02-26T04:42:03;101974.78;;;15.85;42.64
73455;BME280;61690;51.824;6.306;2023-02-26T04:44:29;101982.75;;;15.84;42.52
73455;BME280;61690;51.824;6.306;2023-02-26T04:46:55;101979.88;;;15.90;42.16
73455;BME280;61690;51.824;6.306;2023-02-26T04:49:20;101986.88;;;15.90;42.37
73455;BME280;61690;51.824;6.306;2023-02-26T04:51:45;101976.75;;;15.80;42.45
73455;BME280;61690;51.824;6.306;2023-02-26T04:54:10;101991.63;;;15.80;42.46
73455;BME280;61690;51.824;6.306;2023-02-26T04:56:36;101990.63;;;15.84;42.40
73455;BME280;61690;51.824;6.306;2023-02-26T04:59:01;101994.84;;;15.88;42.70
73455;BME280;61690;51.824;6.306;2023-02-26T05:01:26;101996.75;;;15.83;42.36
73455;BME280;61690;51.824;6.306;2023-02-26T05:03:52;102003.88;;;15.79;42.54
73455;BME280;61690;51.824;6.306;2023-02-26T05:06:17;102005.53;;;15.82;42.54
73455;BME280;61690;51.824;6.306;2023-02-26T05:08:42;102004.81;;;15.78;42.38
73455;BME280;61690;51.824;6.306;2023-02-26T05:11:09;102011.06;;;15.74;42.57
73455;BME280;61690;51.824;6.306;2023-02-26T05:13:34;102010.06;;;15.78;42.37
73455;BME280;61690;51.824;6.306;2023-02-26T05:16:00;102007.59;;;15.72;42.50
73455;BME280;61690;51.824;6.306;2023-02-26T05:18:25;102012.81;;;15.74;42.39
73455;BME280;61690;51.824;6.306;2023-02-26T05:20:52;102012.81;;;15.74;42.37
73455;BME280;61690;51.824;6.306;2023-02-26T05:23:18;102016.16;;;15.79;42.08
73455;BME280;61690;51.824;6.306;2023-02-26T05:25:45;102019.97;;;15.68;42.60
73455;BME280;61690;51.824;6.306;2023-02-26T05:28:10;102025.22;;;15.68;42.21
73455;BME280;61690;51.824;6.306;2023-02-26T05:30:35;102031.28;;;15.71;42.53
73455;BME280;61690;51.824;6.306;2023-02-26T05:33:01;102034.97;;;15.65;42.46
73455;BME280;61690;51.824;6.306;2023-02-26T05:35:26;102034.97;;;15.65;42.58
73455;BME280;61690;51.824;6.306;2023-02-26T05:37:51;102033.28;;;15.62;42.70
73455;BME280;61690;51.824;6.306;2023-02-26T05:40:17;102034.28;;;15.60;42.73
73455;BME280;61690;51.824;6.306;2023-02-26T05:42:42;102043.75;;;15.64;42.42
73455;BME280;61690;51.824;6.306;2023-02-26T05:45:08;102037.38;;;15.71;42.41
73455;BME280;61690;51.824;6.306;2023-02-26T05:47:34;102044.72;;;15.61;42.40
73455;BME280;61690;51.824;6.306;2023-02-26T05:49:59;102050.97;;;15.57;42.60
73455;BME280;61690;51.824;6.306;2023-02-26T05:52:25;102046.53;;;15.59;42.47
73455;BME280;61690;51.824;6.306;2023-02-26T05:54:51;102049.97;;;15.61;42.33
73455;BME280;61690;51.824;6.306;2023-02-26T05:57:16;102048.13;;;15.63;42.32
73455;BME280;61690;51.824;6.306;2023-02-26T05:59:41;102060.88;;;15.74;42.34
73455;BME280;61690;51.824;6.306;2023-02-26T06:02:07;102067.50;;;15.86;41.56
73455;BME280;61690;51.824;6.306;2023-02-26T06:04:32;102063.91;;;15.88;41.83
73455;BME280;61690;51.824;6.306;2023-02-26T06:06:58;102068.09;;;15.94;41.95
73455;BME280;61690;51.824;6.306;2023-02-26T06:09:23;102088.94;;;15.97;41.78
73455;BME280;61690;51.824;6.306;2023-02-26T06:11:48;102076.53;;;16.02;41.66
73455;BME280;61690;51.824;6.306;2023-02-26T06:14:14;102078.25;;;16.03;41.51
73455;BME280;61690;51.824;6.306;2023-02-26T06:16:39;102090.44;;;16.04;41.67
73455;BME280;61690;51.824;6.306;2023-02-26T06:19:04;102094.81;;;16.05;41.56
73455;BME280;61690;51.824;6.306;2023-02-26T06:21:30;102093.66;;;16.13;41.52
73455;BME280;61690;51.824;6.306;2023-02-26T06:23:55;102098.69;;;16.19;41.27
73455;BME280;61690;51.824;6.306;2023-02-26T06:26:20;102104.53;;;16.27;41.37
73455;BME280;61690;51.824;6.306;2023-02-26T06:28:46;102109.22;;;16.42;40.90
73455;BME280;61690;51.824;6.306;2023-02-26T06:31:11;102114.06;;;16.53;40.72
73455;BME280;61690;51.824;6.306;2023-02-26T06:33:36;102115.50;;;16.62;40.53
73455;BME280;61690;51.824;6.306;2023-02-26T06:36:02;102119.84;;;16.63;40.38
73455;BME280;61690;51.824;6.306;2023-02-26T06:38:28;102127.53;;;16.67;40.34
73455;BME280;61690;51.824;6.306;2023-02-26T06:40:53;102132.41;;;16.78;40.29
73455;BME280;61690;51.824;6.306;2023-02-26T06:43:19;102129.63;;;16.83;40.24
73455;BME280;61690;51.824;6.306;2023-02-26T06:45:44;102133.03;;;16.85;40.09
73455;BME280;61690;51.824;6.306;2023-02-26T06:48:10;102141.25;;;16.99;40.11
73455;BME280;61690;51.824;6.306;2023-02-26T06:50:35;102142.91;;;17.02;40.03
73455;BME280;61690;51.824;6.306;2023-02-26T06:53:01;102147.25;;;17.03;40.19
73455;BME280;61690;51.824;6.306;2023-02-26T06:55:26;102153.22;;;17.07;39.87
73455;BME280;61690;51.824;6.306;2023-02-26T06:57:55;102165.38;;;17.11;39.91
73455;BME280;61690;51.824;6.306;2023-02-26T07:00:22;102165.19;;;17.15;39.98
73455;BME280;61690;51.824;6.306;2023-02-26T07:02:48;102165.91;;;17.19;39.99
73455;BME280;61690;51.824;6.306;2023-02-26T07:05:13;102164.81;;;17.24;39.75
73455;BME280;61690;51.824;6.306;2023-02-26T07:07:38;102177.72;;;17.31;39.97
73455;BME280;61690;51.824;6.306;2023-02-26T07:10:04;102174.97;;;17.34;39.85
73455;BME280;61690;51.824;6.306;2023-02-26T07:12:30;102179.31;;;17.35;39.76
73455;BME280;61690;51.824;6.306;2023-02-26T07:14:55;102179.94;;;17.41;39.41
73455;BME280;61690;51.824;6.306;2023-02-26T07:17:21;102199.88;;;17.47;39.42
73455;BME280;61690;51.824;6.306;2023-02-26T07:19:47;102198.03;;;17.49;39.21
73455;BME280;61690;51.824;6.306;2023-02-26T07:22:13;102206.59;;;17.54;39.23
73455;BME280;61690;51.824;6.306;2023-02-26T07:24:39;102211.84;;;17.54;39.78
73455;BME280;61690;51.824;6.306;2023-02-26T07:27:04;102206.34;;;17.60;39.31
73455;BME280;61690;51.824;6.306;2023-02-26T07:29:30;102207.16;;;17.62;39.26
73455;BME280;61690;51.824;6.306;2023-02-26T07:31:55;102207.88;;;17.66;39.58
73455;BME280;61690;51.824;6.306;2023-02-26T07:34:20;102213.84;;;17.70;39.50
73455;BME280;61690;51.824;6.306;2023-02-26T07:36:45;102223.47;;;17.71;39.09
73455;BME280;61690;51.824;6.306;2023-02-26T07:39:11;102225.00;;;17.76;39.56
73455;BME280;61690;51.824;6.306;2023-02-26T07:41:36;102232.84;;;17.78;39.25
73455;BME280;61690;51.824;6.306;2023-02-26T07:44:02;102234.69;;;17.76;39.21
73455;BME280;61690;51.824;6.306;2023-02-26T07:46:27;102240.91;;;17.73;39.58
73455;BME280;61690;51.824;6.306;2023-02-26T07:48:52;102243.47;;;17.75;39.53
73455;BME280;61690;51.824;6.306;2023-02-26T07:51:18;102243.47;;;17.75;39.57
73455;BME280;61690;51.824;6.306;2023-02-26T07:53:43;102239.94;;;17.76;39.19
73455;BME280;61690;51.824;6.306;2023-02-26T07:56:08;102243.22;;;17.81;39.62
73455;BME280;61690;51.824;6.306;2023-02-26T07:58:34;102239.56;;;17.85;39.34
73455;BME280;61690;51.824;6.306;2023-02-26T08:00:59;102243.81;;;17.89;39.29
73455;BME280;61690;51.824;6.306;2023-02-26T08:03:24;102235.78;;;17.92;39.11
73455;BME280;61690;51.824;6.306;2023-02-26T08:05:50;102244.09;;;18.03;39.40
73455;BME280;61690;51.824;6.306;2023-02-26T08:08:15;102246.72;;;18.03;38.81
73455;BME280;61690;51.824;6.306;2023-02-26T08:10:41;102252.78;;;18.06;39.03
73455;BME280;61690;51.824;6.306;2023-02-26T08:13:06;102252.66;;;18.09;38.91
73455;BME280;61690;51.824;6.306;2023-02-26T08:15:32;102261.47;;;18.08;39.15
73455;BME280;61690;51.824;6.306;2023-02-26T08:17:57;102264.06;;;18.09;39.38
73455;BME280;61690;51.824;6.306;2023-02-26T08:20:22;102260.56;;;18.09;39.45
73455;BME280;61690;51.824;6.306;2023-02-26T08:22:49;102264.84;;;18.11;38.98
73455;BME280;61690;51.824;6.306;2023-02-26T08:25:15;102274.38;;;18.14;38.88
73455;BME280;61690;51.824;6.306;2023-02-26T08:27:40;102283.06;;;18.16;39.14
73455;BME280;61690;51.824;6.306;2023-02-26T08:30:08;102281.31;;;18.16;38.88
73455;BME280;61690;51.824;6.306;2023-02-26T08:32:34;102284.00;;;18.15;39.35
73455;BME280;61690;51.824;6.306;2023-02-26T08:35:00;102295.28;;;18.18;39.25
73455;BME280;61690;51.824;6.306;2023-02-26T08:37:25;102291.78;;;18.18;39.34
73455;BME280;61690;51.824;6.306;2023-02-26T08:39:52;102297.97;;;18.17;39.12
73455;BME280;61690;51.824;6.306;2023-02-26T08:42:18;102305.66;;;18.21;39.00
73455;BME280;61690;51.824;6.306;2023-02-26T08:44:45;102301.28;;;18.22;39.24
73455;BME280;61690;51.824;6.306;2023-02-26T08:47:10;102311.94;;;18.19;39.42
73455;BME280;61690;51.824;6.306;2023-02-26T08:49:38;102308.19;;;18.25;39.40
73455;BME280;61690;51.824;6.306;2023-02-26T08:52:04;102316.94;;;18.25;39.37
73455;BME280;61690;51.824;6.306;2023-02-26T08:54:29;102320.50;;;18.24;39.08
73455;BME280;61690;51.824;6.306;2023-02-26T08:56:55;102313.25;;;18.29;39.25
73455;BME280;61690;51.824;6.306;2023-02-26T08:59:25;102323.66;;;18.32;39.05
73455;BME280;61690;51.824;6.306;2023-02-26T09:01:51;102326.25;;;18.34;39.23
73455;BME280;61690;51.824;6.306;2023-02-26T09:04:16;102330.78;;;18.30;38.91
73455;BME280;61690;51.824;6.306;2023-02-26T09:06:42;102337.63;;;18.34;39.37
73455;BME280;61690;51.824;6.306;2023-02-26T09:09:08;102343.63;;;18.38;39.57
73455;BME280;61690;51.824;6.306;2023-02-26T09:11:34;102347.06;;;18.40;39.09
73455;BME280;61690;51.824;6.306;2023-02-26T09:14:01;102354.13;;;18.39;39.15
73455;BME280;61690;51.824;6.306;2023-02-26T09:16:28;102355.03;;;18.38;39.82
73455;BME280;61690;51.824;6.306;2023-02-26T09:18:54;102353.31;;;18.37;39.57
73455;BME280;61690;51.824;6.306;2023-02-26T09:21:19;102358.34;;;18.44;39.74
73455;BME280;61690;51.824;6.306;2023-02-26T09:23:45;102366.97;;;18.47;39.71
73455;BME280;61690;51.824;6.306;2023-02-26T09:26:10;102369.41;;;18.52;39.80
73455;BME280;61690;51.824;6.306;2023-02-26T09:28:35;102372.31;;;18.46;40.37
73455;BME280;61690;51.824;6.306;2023-02-26T09:31:01;102372.19;;;18.49;41.00
73455;BME280;61690;51.824;6.306;2023-02-26T09:33:26;102364.41;;;18.46;41.04
73455;BME280;61690;51.824;6.306;2023-02-26T09:35:51;102380.19;;;18.46;41.54
73455;BME280;61690;51.824;6.306;2023-02-26T09:38:18;102383.75;;;18.45;41.99
73455;BME280;61690;51.824;6.306;2023-02-26T09:40:57;102380.00;;;18.50;42.24
73455;BME280;61690;51.824;6.306;2023-02-26T09:49:02;102379.19;;;18.70;42.76
73455;BME280;61690;51.824;6.306;2023-02-26T09:51:30;102392.09;;;18.76;42.62
73455;BME280;61690;51.824;6.306;2023-02-26T09:53:59;102390.00;;;18.85;43.19
73455;BME280;61690;51.824;6.306;2023-02-26T09:56:32;102397.13;;;18.83;42.76
73455;BME280;61690;51.824;6.306;2023-02-26T09:59:01;102399.16;;;18.76;43.30
73455;BME280;61690;51.824;6.306;2023-02-26T10:12:12;102414.47;;;18.46;42.84
73455;BME280;61690;51.824;6.306;2023-02-26T10:19:56;102426.53;;;18.51;43.06
73455;BME280;61690;51.824;6.306;2023-02-26T10:22:27;102423.25;;;18.67;42.93
73455;BME280;61690;51.824;6.306;2023-02-26T10:25:14;102423.06;;;18.71;43.04
73455;BME280;61690;51.824;6.306;2023-02-26T10:27:54;102432.97;;;18.87;42.79
73455;BME280;61690;51.824;6.306;2023-02-26T10:30:34;102430.00;;;18.74;42.51
73455;BME280;61690;51.824;6.306;2023-02-26T10:33:23;102429.13;;;18.73;42.71
73455;BME280;61690;51.824;6.306;2023-02-26T10:35:55;102425.69;;;18.71;42.71
73455;BME280;61690;51.824;6.306;2023-02-26T10:38:24;102432.00;;;18.67;42.97
73455;BME280;61690;51.824;6.306;2023-02-26T10:41:11;102426.19;;;18.81;42.51
73455;BME280;61690;51.824;6.306;2023-02-26T10:43:40;102426.88;;;18.86;42.50
73455;BME280;61690;51.824;6.306;2023-02-26T10:50:12;102430.50;;;18.84;42.94
73455;BME280;61690;51.824;6.306;2023-02-26T10:52:16;102440.25;;;18.82;43.44
73455;BME280;61690;51.824;6.306;2023-02-26T10:55:05;102436.19;;;18.73;43.57
73455;BME280;61690;51.824;6.306;2023-02-26T10:57:36;102430.97;;;18.71;43.57
73455;BME280;61690;51.824;6.306;2023-02-26T11:00:04;102431.09;;;18.68;43.58
73455;BME280;61690;51.824;6.306;2023-02-26T11:02:35;102426.78;;;18.66;44.00
73455;BME280;61690;51.824;6.306;2023-02-26T11:05:03;102433.91;;;18.64;44.04
73455;BME280;61690;51.824;6.306;2023-02-26T11:07:30;102435.03;;;18.58;44.09
73455;BME280;61690;51.824;6.306;2023-02-26T11:09:56;102446.19;;;18.65;44.04
73455;BME280;61690;51.824;6.306;2023-02-26T11:12:24;102440.28;;;18.58;44.47
73455;BME280;61690;51.824;6.306;2023-02-26T11:14:49;102450.59;;;18.42;44.34
73455;BME280;61690;51.824;6.306;2023-02-26T11:17:27;102451.94;;;18.30;44.53
73455;BME280;61690;51.824;6.306;2023-02-26T11:22:53;102453.53;;;18.34;44.13
73455;BME280;61690;51.824;6.306;2023-02-26T11:25:24;102451.28;;;18.47;43.93
73455;BME280;61690;51.824;6.306;2023-02-26T11:27:58;102450.00;;;18.57;43.41
73455;BME280;61690;51.824;6.306;2023-02-26T11:30:25;102460.22;;;18.65;43.48
73455;BME280;61690;51.824;6.306;2023-02-26T11:32:56;102462.47;;;18.74;43.18
73455;BME280;61690;51.824;6.306;2023-02-26T11:35:24;102456.28;;;18.75;42.86
73455;BME280;61690;51.824;6.306;2023-02-26T11:37:57;102451.81;;;18.77;42.46
73455;BME280;61690;51.824;6.306;2023-02-26T11:40:48;102456.91;;;18.82;42.65
73455;BME280;61690;51.824;6.306;2023-02-26T11:43:18;102454.06;;;18.87;42.62
73455;BME280;61690;51.824;6.306;2023-02-26T11:45:51;102450.31;;;18.92;42.09
73455;BME280;61690;51.824;6.306;2023-02-26T11:48:25;102449.09;;;19.01;42.50
73455;BME280;61690;51.824;6.306;2023-02-26T11:50:57;102441.38;;;18.96;42.60
73455;BME280;61690;51.824;6.306;2023-02-26T11:53:40;102445.16;;;18.91;42.58
73455;BME280;61690;51.824;6.306;2023-02-26T11:58:36;102437.63;;;18.82;42.22
73455;BME280;61690;51.824;6.306;2023-02-26T12:01:03;102439.53;;;18.76;42.72
73455;BME280;61690;51.824;6.306;2023-02-26T12:03:32;102440.53;;;18.74;42.29
73455;BME280;61690;51.824;6.306;2023-02-26T12:05:58;102440.72;;;18.69;42.69
73455;BME280;61690;51.824;6.306;2023-02-26T12:08:34;102436.63;;;18.62;42.32
73455;BME280;61690;51.824;6.306;2023-02-26T12:20:23;102429.22;;;18.50;42.72
73455;BME280;61690;51.824;6.306;2023-02-26T12:31:22;102420.31;;;18.52;42.94
73455;BME280;61690;51.824;6.306;2023-02-26T12:34:26;102416.09;;;18.48;43.01
73455;BME280;61690;51.824;6.306;2023-02-26T12:56:46;102405.97;;;18.82;42.22
73455;BME280;61690;51.824;6.306;2023-02-26T13:02:17;102407.13;;;18.74;42.29
73455;BME280;61690;51.824;6.306;2023-02-26T13:07:45;102410.81;;;18.70;41.98
73455;BME280;61690;51.824;6.306;2023-02-26T13:16:38;102406.25;;;18.53;41.96
73455;BME280;61690;51.824;6.306;2023-02-26T13:19:23;102408.06;;;18.51;42.39
73455;BME280;61690;51.824;6.306;2023-02-26T13:21:59;102416.03;;;18.50;42.10
73455;BME280;61690;51.824;6.306;2023-02-26T13:27:01;102412.72;;;18.45;42.04
73455;BME280;61690;51.824;6.306;2023-02-26T13:29:32;102410.72;;;18.51;42.16
73455;BME280;61690;51.824;6.306;2023-02-26T13:32:15;102402.38;;;18.62;41.82
73455;BME280;61690;51.824;6.306;2023-02-26T13:38:01;102405.47;;;18.72;41.13
73455;BME280;61690;51.824;6.306;2023-02-26T13:46:16;102407.78;;;18.79;41.07
73455;BME280;61690;51.824;6.306;2023-02-26T13:49:06;102411.97;;;18.85;40.90
73455;BME280;61690;51.824;6.306;2023-02-26T13:51:45;102408.47;;;18.85;41.01
73455;BME280;61690;51.824;6.306;2023-02-26T13:59:24;102396.22;;;18.84;40.90
73455;BME280;61690;51.824;6.306;2023-02-26T14:02:00;102395.44;;;18.82;40.68
73455;BME280;61690;51.824;6.306;2023-02-26T14:04:31;102397.47;;;18.73;40.95
73455;BME280;61690;51.824;6.306;2023-02-26T14:07:10;102402.16;;;18.67;41.09
73455;BME280;61690;51.824;6.306;2023-02-26T14:09:56;102397.91;;;18.64;41.02
73455;BME280;61690;51.824;6.306;2023-02-26T14:17:47;102394.06;;;18.51;41.80
73455;BME280;61690;51.824;6.306;2023-02-26T14:20:18;102395.91;;;18.49;41.23
73455;BME280;61690;51.824;6.306;2023-02-26T14:22:49;102403.00;;;18.47;41.46
73455;BME280;61690;51.824;6.306;2023-02-26T14:25:33;102402.34;;;18.41;41.55
73455;BME280;61690;51.824;6.306;2023-02-26T14:30:46;102404.13;;;18.41;41.50
73455;BME280;61690;51.824;6.306;2023-02-26T14:33:15;102402.44;;;18.38;41.45
73455;BME280;61690;51.824;6.306;2023-02-26T14:35:44;102398.06;;;18.39;41.40
73455;BME280;61690;51.824;6.306;2023-02-26T14:38:17;102402.19;;;18.45;41.01
73455;BME280;61690;51.824;6.306;2023-02-26T14:40:48;102393.75;;;18.58;40.61
73455;BME280;61690;51.824;6.306;2023-02-26T14:43:38;102396.28;;;18.60;40.67
73455;BME280;61690;51.824;6.306;2023-02-26T14:46:09;102390.53;;;18.50;40.77
73455;BME280;61690;51.824;6.306;2023-02-26T14:48:35;102391.00;;;18.60;40.59
73455;BME280;61690;51.824;6.306;2023-02-26T14:59:08;102393.72;;;18.80;40.29
73455;BME280;61690;51.824;6.306;2023-02-26T15:04:31;102394.06;;;18.71;40.24
73455;BME280;61690;51.824;6.306;2023-02-26T15:07:13;102389.34;;;18.79;40.33
73455;BME280;61690;51.824;6.306;2023-02-26T15:10:16;102396.47;;;18.77;40.41
73455;BME280;61690;51.824;6.306;2023-02-26T15:21:31;102397.63;;;18.70;41.06
73455;BME280;61690;51.824;6.306;2023-02-26T15:24:00;102404.75;;;18.68;41.13
73455;BME280;61690;51.824;6.306;2023-02-26T15:26:31;102403.16;;;18.64;41.23
73455;BME280;61690;51.824;6.306;2023-02-26T15:28:58;102406.81;;;18.60;41.30
73455;BME280;61690;51.824;6.306;2023-02-26T15:31:36;102414.81;;;18.58;41.66
73455;BME280;61690;51.824;6.306;2023-02-26T15:34:04;102416.66;;;18.56;41.42
73455;BME280;61690;51.824;6.306;2023-02-26T15:36:30;102422.91;;;18.54;41.78
73455;BME280;61690;51.824;6.306;2023-02-26T15:38:59;102426.53;;;18.51;41.74